Terminal Aerodrome Forecast
Issued by NWS

Current Version | Previous Version | Graphics & Text | Print | Product List | Glossary On
Versions: 1 2 3 4 5 6 7 8 9 10 11 12 13 14 15 16 17 18 19 20 21 22 23 24 25 26 27 28 29 30 31 32 33 34 35 36 37 38 39 40 41 42 43 44 45 46 47 48 49 50
000
FTUS41 KRNK 210442 AAA
TAFLWB
TAF AMD
KLWB 210442Z 2105/2124 00000KT 1 1/2SM BR SKC
     FM210700 00000KT 1/4SM FG OVC001
     FM211400 28006KT P6SM BKN040
     FM211900 28009KT P6SM VCSH BKN040=

USA.gov is the U.S. government's official web portal to all federal, state and local government web resources and services.